createdAt,value
2019-06-26T00:01:45.003Z,22.40
2019-06-26T00:04:14.477Z,22.30
2019-06-26T00:06:43.886Z,22.20
2019-06-26T00:09:13.309Z,22.10
2019-06-26T00:11:42.811Z,22.00
2019-06-26T00:14:12.438Z,22.10
2019-06-26T00:16:42.020Z,22.10
2019-06-26T00:19:11.341Z,22.30
2019-06-26T00:21:42.981Z,22.40
2019-06-26T00:24:12.412Z,22.40
2019-06-26T00:26:41.914Z,22.40
2019-06-26T00:29:11.319Z,22.40
2019-06-26T00:31:40.819Z,22.20
2019-06-26T00:34:10.215Z,21.90
2019-06-26T00:36:39.586Z,21.70
2019-06-26T00:39:09.093Z,21.90
2019-06-26T00:41:38.777Z,21.90
2019-06-26T00:44:08.360Z,21.90
2019-06-26T00:46:37.907Z,22.00
2019-06-26T00:49:07.331Z,22.00
2019-06-26T00:51:36.964Z,21.90
2019-06-26T00:54:06.416Z,21.90
2019-06-26T00:56:36.058Z,21.60
2019-06-26T00:59:05.615Z,21.60
2019-06-26T01:01:35.129Z,21.70
2019-06-26T01:04:09.404Z,21.80
2019-06-26T01:06:45.141Z,21.70
2019-06-26T01:09:15.764Z,21.70
2019-06-26T01:11:45.288Z,21.80
2019-06-26T01:14:14.890Z,21.70
2019-06-26T01:16:44.336Z,21.70
2019-06-26T01:19:14.170Z,21.70
2019-06-26T01:21:43.731Z,21.70
2019-06-26T01:24:13.219Z,21.70
2019-06-26T01:26:42.979Z,21.70
2019-06-26T01:29:12.514Z,21.80
2019-06-26T01:31:42.239Z,21.80
2019-06-26T01:34:11.900Z,21.90
2019-06-26T01:36:41.375Z,21.60
2019-06-26T01:39:10.885Z,21.80
2019-06-26T01:41:40.544Z,21.70
2019-06-26T01:44:14.745Z,21.60
2019-06-26T01:46:41.322Z,21.40
2019-06-26T01:49:10.868Z,21.40
2019-06-26T01:51:40.401Z,21.50
2019-06-26T01:54:09.917Z,21.20
2019-06-26T01:56:39.592Z,21.20
2019-06-26T01:59:09.094Z,21.00
2019-06-26T02:01:38.641Z,21.10
2019-06-26T02:04:08.209Z,21.20
2019-06-26T02:06:37.759Z,21.10
2019-06-26T02:09:07.787Z,21.10
2019-06-26T02:11:40.029Z,21.00
2019-06-26T02:14:09.689Z,21.00
2019-06-26T02:16:39.341Z,21.10
2019-06-26T02:19:10.471Z,21.00
2019-06-26T02:21:40.111Z,20.90
2019-06-26T02:24:09.697Z,20.90
2019-06-26T02:26:39.278Z,20.90
2019-06-26T02:29:08.775Z,20.90
2019-06-26T02:31:38.317Z,20.90
2019-06-26T02:34:07.976Z,20.80
2019-06-26T02:36:37.539Z,20.90
2019-06-26T02:39:07.752Z,20.80
2019-06-26T02:41:37.597Z,20.80
2019-06-26T02:44:07.029Z,20.80
2019-06-26T02:46:36.574Z,20.70
2019-06-26T02:49:06.010Z,20.70
2019-06-26T02:51:35.633Z,20.70
2019-06-26T02:54:05.434Z,20.70
2019-06-26T02:56:35.073Z,20.60
2019-06-26T02:59:04.596Z,20.90
2019-06-26T03:01:34.135Z,21.00
2019-06-26T03:04:03.549Z,21.10
2019-06-26T03:06:33.122Z,21.10
2019-06-26T03:09:02.664Z,20.90
2019-06-26T03:11:32.335Z,21.10
2019-06-26T03:14:01.873Z,21.20
2019-06-26T03:16:34.848Z,21.00
2019-06-26T03:19:04.398Z,20.90
2019-06-26T03:21:33.956Z,21.00
2019-06-26T03:24:03.505Z,20.90
2019-06-26T03:26:33.056Z,20.50
2019-06-26T03:29:02.657Z,20.60
2019-06-26T03:31:32.313Z,20.80
2019-06-26T03:34:01.905Z,21.00
2019-06-26T03:36:31.510Z,21.10
2019-06-26T03:39:01.124Z,20.90
2019-06-26T03:41:30.740Z,21.10
2019-06-26T03:44:00.210Z,21.10
2019-06-26T03:46:29.927Z,20.90
2019-06-26T03:48:59.371Z,20.90
2019-06-26T03:51:28.902Z,20.80
2019-06-26T03:53:58.558Z,20.70
2019-06-26T03:56:28.037Z,20.80
2019-06-26T03:58:57.561Z,20.60
2019-06-26T04:01:27.133Z,20.60
2019-06-26T04:03:57.531Z,20.60
2019-06-26T04:06:27.318Z,20.60
2019-06-26T04:08:57.166Z,20.60
2019-06-26T04:11:26.692Z,21.00
2019-06-26T04:13:56.379Z,20.80
2019-06-26T04:16:26.337Z,20.70
2019-06-26T04:18:55.765Z,20.70
2019-06-26T04:21:25.243Z,20.80
2019-06-26T04:23:54.813Z,20.80
2019-06-26T04:26:24.284Z,20.90
2019-06-26T04:28:53.695Z,21.10
2019-06-26T04:31:23.447Z,21.00
2019-06-26T04:33:52.867Z,20.70
2019-06-26T04:36:22.388Z,20.90
2019-06-26T04:38:51.958Z,21.10
2019-06-26T04:41:21.634Z,21.40
2019-06-26T04:43:51.125Z,21.10
2019-06-26T04:46:20.564Z,21.10
2019-06-26T04:48:49.930Z,21.30
2019-06-26T04:51:19.487Z,21.30
2019-06-26T04:53:48.999Z,21.20
2019-06-26T04:56:18.642Z,21.10
2019-06-26T04:58:48.117Z,21.20
2019-06-26T05:01:17.542Z,21.20
2019-06-26T05:03:48.204Z,21.10
2019-06-26T05:06:17.665Z,21.40
2019-06-26T05:08:47.084Z,21.30
2019-06-26T05:11:16.546Z,21.30
2019-06-26T05:13:46.363Z,21.50
2019-06-26T05:16:20.468Z,21.40
2019-06-26T05:18:49.091Z,21.60
2019-06-26T05:21:18.791Z,21.70
2019-06-26T05:23:48.325Z,21.80
2019-06-26T05:26:17.874Z,21.80
2019-06-26T05:28:47.317Z,22.10
2019-06-26T05:31:16.755Z,22.00
2019-06-26T05:33:46.612Z,22.20
2019-06-26T05:36:16.123Z,22.20
2019-06-26T05:38:45.960Z,22.30
2019-06-26T05:41:15.527Z,22.20
2019-06-26T05:43:45.188Z,21.90
2019-06-26T05:46:29.960Z,22.10
2019-06-26T05:48:46.157Z,22.10
2019-06-26T05:51:15.797Z,22.20
2019-06-26T05:53:45.222Z,22.20
2019-06-26T05:56:14.612Z,22.50
2019-06-26T05:58:44.088Z,22.60
2019-06-26T06:01:13.834Z,22.80
2019-06-26T06:03:43.903Z,23.00
2019-06-26T06:06:13.587Z,23.20
2019-06-26T06:08:44.127Z,23.10
2019-06-26T06:11:13.566Z,23.30
2019-06-26T06:13:43.174Z,23.30
2019-06-26T06:16:13.866Z,23.60
2019-06-26T06:18:43.544Z,23.80
2019-06-26T06:21:12.996Z,23.90
2019-06-26T06:23:42.585Z,23.90
2019-06-26T06:26:12.242Z,23.80
2019-06-26T06:28:42.011Z,24.00
2019-06-26T06:31:11.613Z,24.30
2019-06-26T06:33:41.143Z,24.20
2019-06-26T06:36:10.676Z,24.50
2019-06-26T06:38:40.168Z,24.50
2019-06-26T09:02:34.527Z,36.00
2019-06-26T09:05:04.271Z,35.60
2019-06-26T09:07:33.486Z,35.10
2019-06-26T09:10:03.001Z,34.30
2019-06-26T09:12:32.264Z,34.50
2019-06-26T09:15:01.594Z,34.50
2019-06-26T09:17:31.044Z,34.60
2019-06-26T09:20:00.171Z,34.60
2019-06-26T09:22:29.408Z,35.60
2019-06-26T09:24:58.785Z,34.90
2019-06-26T09:27:28.103Z,35.10
2019-06-26T09:29:57.358Z,35.30
2019-06-26T09:32:26.660Z,35.00
2019-06-26T09:34:55.898Z,35.30
2019-06-26T09:37:25.114Z,35.10
2019-06-26T09:39:54.336Z,35.00
2019-06-26T09:42:23.535Z,36.70
2019-06-26T09:44:52.850Z,37.80
2019-06-26T09:47:24.649Z,38.10
2019-06-26T09:49:53.993Z,35.60
2019-06-26T09:52:23.402Z,34.60
2019-06-26T09:54:52.743Z,34.40
2019-06-26T09:57:22.058Z,35.40
2019-06-26T09:59:51.327Z,36.60
2019-06-26T10:02:20.692Z,36.10
2019-06-26T10:04:50.103Z,35.50
2019-06-26T10:07:19.453Z,35.00
2019-06-26T10:09:48.765Z,34.80
2019-06-26T10:12:18.145Z,35.00
2019-06-26T10:14:48.201Z,34.80
2019-06-26T10:17:17.797Z,34.30
2019-06-26T10:19:47.047Z,35.50
2019-06-26T10:22:16.208Z,37.50
2019-06-26T10:24:45.548Z,36.10
2019-06-26T10:27:14.766Z,36.40
2019-06-26T10:29:44.127Z,36.80
2019-06-26T10:32:13.370Z,35.50
2019-06-26T10:34:42.746Z,34.50
2019-06-26T10:37:12.184Z,34.40
2019-06-26T10:39:41.492Z,34.90
2019-06-26T10:42:10.733Z,35.70
2019-06-26T10:44:40.000Z,35.60
2019-06-26T10:47:09.210Z,36.00
2019-06-26T10:49:38.668Z,35.30
2019-06-26T10:52:08.032Z,34.40
2019-06-26T10:54:37.265Z,34.20
2019-06-26T10:57:06.544Z,34.10
2019-06-26T10:59:35.795Z,34.10
2019-06-26T11:02:05.013Z,34.40
2019-06-26T11:04:34.229Z,35.80
2019-06-26T11:07:03.546Z,35.10
2019-06-26T11:09:32.913Z,35.00
2019-06-26T11:12:02.303Z,35.00
2019-06-26T11:14:34.813Z,34.20
2019-06-26T11:17:31.387Z,34.80
2019-06-26T11:20:00.696Z,35.80
2019-06-26T11:22:30.216Z,35.30
2019-06-26T11:28:11.375Z,34.60
2019-06-26T11:30:41.097Z,35.20
2019-06-26T11:33:10.371Z,35.10
2019-06-26T11:35:39.670Z,35.20
2019-06-26T11:38:09.015Z,35.30
2019-06-26T11:40:38.238Z,36.80
2019-06-26T11:43:07.413Z,35.60
2019-06-26T11:45:36.670Z,36.30
2019-06-26T11:48:05.923Z,36.60
2019-06-26T11:50:35.265Z,36.40
2019-06-26T11:53:04.553Z,36.50
2019-06-26T11:55:33.837Z,37.70
2019-06-26T11:58:03.230Z,37.10
2019-06-26T12:00:32.597Z,36.80
2019-06-26T12:03:01.991Z,36.40
2019-06-26T12:05:31.320Z,36.70
2019-06-26T12:08:00.552Z,36.30
2019-06-26T12:10:29.767Z,37.00
2019-06-26T12:12:59.088Z,37.60
2019-06-26T12:15:28.403Z,37.20
2019-06-26T12:17:57.580Z,36.90
2019-06-26T12:20:26.984Z,36.80
2019-06-26T12:22:56.265Z,37.60
2019-06-26T12:25:25.673Z,36.90
2019-06-26T12:27:55.288Z,36.50
2019-06-26T12:30:24.754Z,36.80
2019-06-26T12:33:02.800Z,35.90
2019-06-26T12:35:25.170Z,35.80
2019-06-26T12:37:54.549Z,36.40
2019-06-26T12:40:23.905Z,36.50
2019-06-26T12:42:55.655Z,36.70
2019-06-26T12:45:24.155Z,35.90
2019-06-26T12:47:53.379Z,36.30
2019-06-26T12:50:34.853Z,36.70
2019-06-26T12:52:55.389Z,36.00
2019-06-26T12:55:24.656Z,36.10
2019-06-26T12:57:53.975Z,36.90
2019-06-26T13:00:23.348Z,37.80
2019-06-26T13:02:52.627Z,36.90
2019-06-26T13:05:22.141Z,36.00
2019-06-26T13:07:51.415Z,35.80
2019-06-26T13:10:24.654Z,35.80
2019-06-26T13:12:53.985Z,36.50
2019-06-26T13:15:23.266Z,36.50
2019-06-26T13:17:52.621Z,36.50
2019-06-26T13:20:21.885Z,36.60
2019-06-26T13:22:51.248Z,36.20
2019-06-26T13:25:20.945Z,35.50
2019-06-26T13:27:50.300Z,35.40
2019-06-26T13:30:26.077Z,35.20
2019-06-26T13:32:55.545Z,35.10
2019-06-26T13:35:24.867Z,35.10
2019-06-26T13:37:54.365Z,34.80
2019-06-26T13:40:23.809Z,35.10
2019-06-26T13:42:53.039Z,35.20
2019-06-26T13:45:22.358Z,34.80
2019-06-26T13:47:51.697Z,35.20
2019-06-26T13:50:21.259Z,35.70
2019-06-26T13:52:50.508Z,35.50
2019-06-26T13:55:19.841Z,36.10
2019-06-26T13:57:49.080Z,35.70
2019-06-26T14:00:19.401Z,35.30
2019-06-26T14:02:48.737Z,35.00
2019-06-26T14:05:18.586Z,35.20
2019-06-26T14:07:47.824Z,35.10
2019-06-26T14:10:17.174Z,35.20
2019-06-26T14:12:46.542Z,35.20
2019-06-26T14:15:16.842Z,35.30
2019-06-26T14:17:46.214Z,35.20
2019-06-26T14:20:15.632Z,35.20
2019-06-26T14:22:44.865Z,35.20
2019-06-26T14:25:14.497Z,35.10
2019-06-26T14:27:43.746Z,35.20
2019-06-26T14:30:13.143Z,35.60
2019-06-26T14:32:42.434Z,35.80
2019-06-26T14:35:11.959Z,35.50
2019-06-26T14:37:41.216Z,35.30
2019-06-26T14:40:10.517Z,35.00
2019-06-26T14:42:39.757Z,35.20
2019-06-26T14:45:09.476Z,35.20
2019-06-26T14:47:38.720Z,35.00
2019-06-26T14:50:09.695Z,35.00
2019-06-26T14:52:38.867Z,35.00
2019-06-26T14:55:09.858Z,35.30
2019-06-26T14:57:39.240Z,35.30
2019-06-26T15:00:09.368Z,35.60
2019-06-26T15:02:38.919Z,35.40
2019-06-26T15:05:08.704Z,35.20
2019-06-26T15:07:37.979Z,35.30
2019-06-26T15:10:08.545Z,35.00
2019-06-26T15:12:38.299Z,34.90
2019-06-26T15:15:08.019Z,34.90
2019-06-26T15:17:37.366Z,35.10
2019-06-26T15:20:07.993Z,35.10
2019-06-26T15:22:37.143Z,35.30
2019-06-26T15:25:06.549Z,35.10
2019-06-26T15:27:35.784Z,35.20
2019-06-26T15:30:05.702Z,35.00
2019-06-26T15:32:35.025Z,35.00
2019-06-26T15:35:04.883Z,35.30
2019-06-26T15:37:34.285Z,35.30
2019-06-26T15:40:03.689Z,35.10
2019-06-26T15:42:32.950Z,35.10
2019-06-26T15:45:02.540Z,35.10
2019-06-26T15:47:31.828Z,35.10
2019-06-26T15:50:01.148Z,35.30
2019-06-26T15:52:31.934Z,35.20
2019-06-26T15:55:01.200Z,35.30
2019-06-26T15:57:30.571Z,35.30
2019-06-26T15:59:59.896Z,35.30
2019-06-26T16:02:29.189Z,35.10
2019-06-26T16:04:58.531Z,35.30
2019-06-26T16:07:27.765Z,35.00
2019-06-26T16:09:57.105Z,34.80
2019-06-26T16:12:26.474Z,35.00
2019-06-26T16:14:55.864Z,34.90
2019-06-26T16:17:32.939Z,35.00
2019-06-26T16:20:02.497Z,35.00
2019-06-26T16:22:32.914Z,34.90
2019-06-26T16:25:02.480Z,34.90
2019-06-26T16:27:31.858Z,35.00
2019-06-26T16:30:01.291Z,35.10
2019-06-26T16:32:30.640Z,35.00
2019-06-26T16:34:59.972Z,34.90
2019-06-26T16:37:32.424Z,34.60
2019-06-26T16:40:01.788Z,34.70
2019-06-26T16:42:31.071Z,34.80
2019-06-26T16:45:00.780Z,34.80
2019-06-26T16:47:30.073Z,34.80
2019-06-26T16:49:59.338Z,34.90
2019-06-26T16:52:30.456Z,34.80
2019-06-26T16:54:59.793Z,35.00
2019-06-26T16:57:29.047Z,35.00
2019-06-26T17:00:09.653Z,34.70
2019-06-26T17:02:30.736Z,34.60
2019-06-26T17:05:00.170Z,34.60
2019-06-26T17:07:29.816Z,34.60
2019-06-26T17:09:59.118Z,34.60
2019-06-26T17:12:28.572Z,34.80
2019-06-26T17:14:57.813Z,34.60
2019-06-26T17:17:27.162Z,34.60
2019-06-26T17:19:56.456Z,34.60
2019-06-26T17:22:25.640Z,34.70
2019-06-26T17:24:54.959Z,34.80
2019-06-26T17:27:24.291Z,34.90
2019-06-26T17:29:53.592Z,34.90
2019-06-26T17:32:22.993Z,34.70
2019-06-26T17:34:52.395Z,34.70
2019-06-26T17:37:21.760Z,34.50
2019-06-26T17:39:51.097Z,34.50
2019-06-26T17:42:20.407Z,34.50
2019-06-26T17:44:49.665Z,34.50
2019-06-26T17:47:19.232Z,34.50
2019-06-26T17:49:48.653Z,34.40
2019-06-26T17:52:18.159Z,34.50
2019-06-26T17:54:47.415Z,34.50
2019-06-26T17:57:16.691Z,34.50
2019-06-26T17:59:45.963Z,34.60
2019-06-26T18:02:15.300Z,34.50
2019-06-26T18:04:44.788Z,34.40
2019-06-26T18:07:14.134Z,34.60
2019-06-26T18:09:43.486Z,34.50
2019-06-26T18:12:13.256Z,34.40
2019-06-26T18:14:44.965Z,34.20
2019-06-26T18:17:22.175Z,34.20
2019-06-26T18:19:45.890Z,34.20
2019-06-26T18:22:15.314Z,34.20
2019-06-26T18:24:44.632Z,34.10
2019-06-26T18:27:13.881Z,34.20
2019-06-26T18:29:43.395Z,34.20
2019-06-26T18:32:12.712Z,33.90
2019-06-26T18:34:42.144Z,33.70
2019-06-26T18:37:11.521Z,33.60
2019-06-26T18:39:41.017Z,32.70
2019-06-26T18:42:10.465Z,32.60
2019-06-26T18:44:40.020Z,32.50
2019-06-26T18:47:09.514Z,32.50
2019-06-26T18:49:38.931Z,32.50
2019-06-26T18:52:08.262Z,32.40
2019-06-26T18:54:37.635Z,32.10
2019-06-26T18:57:06.965Z,31.80
2019-06-26T18:59:36.305Z,31.50
2019-06-26T19:02:05.728Z,31.30
2019-06-26T19:04:35.055Z,31.20
2019-06-26T19:07:04.464Z,31.00
2019-06-26T19:09:33.756Z,30.70
2019-06-26T19:12:03.026Z,30.20
2019-06-26T19:14:32.455Z,30.50
2019-06-26T19:17:01.780Z,30.70
2019-06-26T19:19:31.099Z,30.40
2019-06-26T19:22:00.596Z,30.30
2019-06-26T19:24:29.886Z,30.40
2019-06-26T19:26:59.237Z,30.20
2019-06-26T19:29:28.448Z,29.90
2019-06-26T19:31:57.717Z,29.90
2019-06-26T19:34:26.958Z,29.60
2019-06-26T19:36:56.203Z,29.50
2019-06-26T19:39:25.417Z,29.40
2019-06-26T19:41:54.866Z,29.20
2019-06-26T19:44:24.216Z,29.10
2019-06-26T19:46:53.486Z,29.00
2019-06-26T19:49:22.700Z,29.00
2019-06-26T19:51:52.048Z,28.80
2019-06-26T19:54:27.142Z,28.90
2019-06-26T19:56:52.356Z,28.90
2019-06-26T19:59:21.672Z,28.90
2019-06-26T20:01:51.548Z,28.90
2019-06-26T20:04:21.055Z,28.70
2019-06-26T20:06:50.371Z,28.40
2019-06-26T20:09:19.682Z,28.10
2019-06-26T20:11:48.938Z,28.30
2019-06-26T20:14:18.275Z,28.10
2019-06-26T20:16:47.649Z,28.10
2019-06-26T20:19:17.027Z,28.20
2019-06-26T20:21:46.340Z,28.00
2019-06-26T20:24:15.749Z,27.80
2019-06-26T20:26:45.113Z,27.70
2019-06-26T20:29:14.409Z,27.50
2019-06-26T20:31:43.704Z,27.40
2019-06-26T20:34:13.020Z,27.10
2019-06-26T20:36:42.478Z,27.20
2019-06-26T20:39:11.844Z,27.20
2019-06-26T20:41:41.178Z,27.40
2019-06-26T20:44:10.477Z,27.40
2019-06-26T20:46:39.661Z,27.10
2019-06-26T20:49:08.917Z,26.80
2019-06-26T20:51:38.169Z,26.40
2019-06-26T20:54:07.395Z,26.40
2019-06-26T20:56:36.653Z,26.80
2019-06-26T20:59:05.933Z,26.90
2019-06-26T21:01:35.139Z,27.30
2019-06-26T21:04:04.408Z,27.20
2019-06-26T21:06:33.628Z,27.20
2019-06-26T21:09:03.111Z,27.30
2019-06-26T21:11:32.480Z,27.50
2019-06-26T21:14:01.864Z,27.40
2019-06-26T21:16:31.139Z,27.20
2019-06-26T21:19:00.438Z,26.90
2019-06-26T21:21:29.654Z,26.60
2019-06-26T21:23:58.853Z,26.70
2019-06-26T21:26:28.176Z,26.70
2019-06-26T21:29:00.684Z,26.80
2019-06-26T21:31:28.457Z,26.80
2019-06-26T21:33:57.687Z,26.80
2019-06-26T21:36:26.989Z,26.60
2019-06-26T21:38:56.288Z,26.70
2019-06-26T21:41:25.609Z,26.80
2019-06-26T21:43:54.925Z,26.90
2019-06-26T21:46:24.215Z,26.90
2019-06-26T21:48:53.448Z,26.80
2019-06-26T21:51:22.672Z,26.80
2019-06-26T21:53:52.075Z,26.60
2019-06-26T21:56:21.255Z,26.60
2019-06-26T21:58:50.527Z,26.20
2019-06-26T22:01:19.842Z,26.30
2019-06-26T22:03:49.097Z,26.30
2019-06-26T22:06:18.578Z,26.10
2019-06-26T22:08:47.884Z,25.90
2019-06-26T22:11:17.229Z,25.90
2019-06-26T22:13:46.466Z,25.80
2019-06-26T22:16:15.740Z,25.80
2019-06-26T22:18:45.035Z,26.00
2019-06-26T22:21:14.236Z,26.00
2019-06-26T22:23:43.532Z,25.60
2019-06-26T22:26:14.354Z,25.40
2019-06-26T22:28:43.915Z,25.40
2019-06-26T22:31:13.322Z,25.40
2019-06-26T22:33:42.647Z,25.40
2019-06-26T22:36:11.972Z,25.30
2019-06-26T22:38:41.264Z,25.40
2019-06-26T22:41:10.551Z,25.30
2019-06-26T22:43:40.032Z,25.20
2019-06-26T22:46:09.513Z,25.30
2019-06-26T22:48:38.868Z,25.00
2019-06-26T22:51:08.061Z,25.10
2019-06-26T22:53:37.224Z,25.20
2019-06-26T22:56:08.071Z,25.20
2019-06-26T22:58:37.586Z,25.30
2019-06-26T23:01:06.909Z,25.40
2019-06-26T23:03:36.173Z,25.40
2019-06-26T23:06:05.444Z,25.20
2019-06-26T23:08:34.657Z,25.10
2019-06-26T23:11:03.879Z,25.20
2019-06-26T23:13:33.061Z,25.30
2019-06-26T23:16:02.278Z,25.10
2019-06-26T23:18:31.467Z,25.20
2019-06-26T23:21:00.759Z,25.10
2019-06-26T23:23:30.023Z,25.10
2019-06-26T23:25:59.288Z,25.00
2019-06-26T23:28:29.126Z,25.00
2019-06-26T23:30:58.329Z,24.80
2019-06-26T23:33:27.559Z,24.80
2019-06-26T23:35:56.879Z,24.80
2019-06-26T23:38:26.125Z,24.80
2019-06-26T23:40:55.336Z,24.90
2019-06-26T23:43:24.678Z,24.80
2019-06-26T23:45:54.075Z,24.90
2019-06-26T23:48:23.416Z,24.80
2019-06-26T23:50:52.826Z,24.80
2019-06-26T23:53:22.084Z,24.70
2019-06-26T23:55:51.459Z,24.50
2019-06-26T23:58:21.028Z,24.40
